createdAt,value
2019-05-22T00:01:34.432Z,35.90
2019-05-22T00:03:44.371Z,34.97
2019-05-22T00:05:48.396Z,33.60
2019-05-22T00:07:52.131Z,35.30
2019-05-22T00:09:56.429Z,36.27
2019-05-22T00:12:00.566Z,35.60
2019-05-22T00:14:06.057Z,37.17
2019-05-22T00:16:11.604Z,36.37
2019-05-22T00:18:16.431Z,37.07
2019-05-22T00:20:23.712Z,34.73
2019-05-22T00:22:32.015Z,36.17
2019-05-22T00:24:37.065Z,36.13
2019-05-22T00:26:43.738Z,36.50
2019-05-22T00:28:47.634Z,33.13
2019-05-22T00:30:51.523Z,33.67
2019-05-22T00:32:56.444Z,36.50
2019-05-22T00:35:00.669Z,35.40
2019-05-22T00:37:06.332Z,37.10
2019-05-22T00:39:10.784Z,35.17
2019-05-22T00:41:18.266Z,33.13
2019-05-22T00:43:30.280Z,35.17
2019-05-22T00:45:34.125Z,33.83
2019-05-22T00:47:38.152Z,33.93
2019-05-22T00:49:45.863Z,34.87
2019-05-22T00:51:57.833Z,33.83
2019-05-22T00:54:09.797Z,33.63
2019-05-22T00:56:17.102Z,34.50
2019-05-22T00:58:38.802Z,34.47
2019-05-22T01:00:49.816Z,35.13
2019-05-22T01:02:55.345Z,37.50
2019-05-22T01:04:59.763Z,37.33
2019-05-22T01:07:07.671Z,35.87
2019-05-22T01:09:20.547Z,35.97
2019-05-22T01:11:26.337Z,36.33
2019-05-22T01:13:32.891Z,36.77
2019-05-22T01:15:38.650Z,35.47
2019-05-22T01:17:43.831Z,33.73
2019-05-22T01:19:48.934Z,35.13
2019-05-22T01:21:54.969Z,34.43
2019-05-22T01:23:59.409Z,36.07
2019-05-22T01:26:05.359Z,34.10
2019-05-22T01:28:10.715Z,34.13
2019-05-22T01:30:19.598Z,32.90
2019-05-22T01:32:25.058Z,33.57
2019-05-22T01:34:30.586Z,33.17
2019-05-22T01:36:35.782Z,31.73
2019-05-22T01:38:40.345Z,31.33
2019-05-22T01:40:54.596Z,30.80
2019-05-22T01:43:00.437Z,31.40
2019-05-22T01:45:07.079Z,31.40
2019-05-22T01:47:15.622Z,33.03
2019-05-22T01:49:19.227Z,31.67
2019-05-22T01:51:24.151Z,31.97
2019-05-22T01:53:31.424Z,33.50
2019-05-22T01:55:35.352Z,32.87
2019-05-22T01:57:39.341Z,32.70
2019-05-22T01:59:45.198Z,32.83
2019-05-22T02:01:49.114Z,35.93
2019-05-22T02:03:55.585Z,34.77
2019-05-22T02:06:01.292Z,34.23
2019-05-22T02:08:05.842Z,33.87
2019-05-22T02:10:14.334Z,34.47
2019-05-22T02:12:25.054Z,30.63
2019-05-22T02:14:30.772Z,33.67
2019-05-22T02:16:36.608Z,32.63
2019-05-22T02:18:43.824Z,31.33
2019-05-22T02:20:49.384Z,33.60
2019-05-22T02:22:54.737Z,34.43
2019-05-22T02:25:00.224Z,33.10
2019-05-22T02:27:05.718Z,35.60
2019-05-22T02:29:12.126Z,32.63
2019-05-22T02:31:17.702Z,33.90
2019-05-22T02:33:22.497Z,34.23
2019-05-22T02:35:26.867Z,32.53
2019-05-22T02:37:30.626Z,32.53
2019-05-22T02:39:36.014Z,31.83
2019-05-22T02:41:48.672Z,32.23
2019-05-22T02:43:53.000Z,32.60
2019-05-22T02:45:58.126Z,31.20
2019-05-22T02:48:03.818Z,32.20
2019-05-22T02:50:08.947Z,32.67
2019-05-22T02:52:14.651Z,33.33
2019-05-22T02:54:19.176Z,32.13
2019-05-22T02:56:23.390Z,33.38
2019-05-22T02:58:29.085Z,31.10
2019-05-22T03:00:38.612Z,31.30
2019-05-22T03:02:54.058Z,32.10
2019-05-22T03:05:04.094Z,28.80
2019-05-22T03:07:09.553Z,29.70
2019-05-22T03:09:18.347Z,31.63
2019-05-22T03:11:23.997Z,33.07
2019-05-22T03:13:40.304Z,29.27
2019-05-22T03:15:45.231Z,30.30
2019-05-22T03:17:52.404Z,29.57
2019-05-22T03:19:58.340Z,28.83
2019-05-22T03:22:05.233Z,27.90
2019-05-22T03:24:09.350Z,29.90
2019-05-22T03:26:15.464Z,28.10
2019-05-22T03:28:19.329Z,27.67
2019-05-22T03:30:30.187Z,27.60
2019-05-22T03:32:34.059Z,29.17
2019-05-22T03:34:39.646Z,27.67
2019-05-22T03:36:43.226Z,26.30
2019-05-22T03:38:47.717Z,28.00
2019-05-22T03:40:53.384Z,29.03
2019-05-22T03:42:57.720Z,28.10
2019-05-22T03:45:02.329Z,27.90
2019-05-22T03:47:07.455Z,27.40
2019-05-22T03:49:29.360Z,28.40
2019-05-22T03:51:20.496Z,30.27
2019-05-22T03:53:24.708Z,28.93
2019-05-22T03:55:28.813Z,27.07
2019-05-22T03:57:32.558Z,28.47
2019-05-22T03:59:38.778Z,27.90
2019-05-22T04:01:43.925Z,28.07
2019-05-22T04:03:48.640Z,27.90
2019-05-22T04:05:52.845Z,28.30
2019-05-22T04:07:58.561Z,28.97
2019-05-22T04:10:04.758Z,27.57
2019-05-22T04:12:10.534Z,28.17
2019-05-22T04:14:14.407Z,26.90
2019-05-22T04:16:19.956Z,27.90
2019-05-22T04:18:26.391Z,27.93
2019-05-22T04:20:30.740Z,27.80
2019-05-22T04:22:35.365Z,27.10
2019-05-22T04:24:41.489Z,28.33
2019-05-22T04:26:46.565Z,28.63
2019-05-22T04:28:53.105Z,26.63
2019-05-22T04:30:59.878Z,26.47
2019-05-22T04:33:04.715Z,27.50
2019-05-22T04:35:12.413Z,28.33
2019-05-22T04:37:16.237Z,26.97
2019-05-22T04:39:21.530Z,29.37
2019-05-22T04:41:25.678Z,27.63
2019-05-22T04:43:32.774Z,28.20
2019-05-22T04:45:36.942Z,29.03
2019-05-22T04:47:42.367Z,26.53
2019-05-22T04:49:46.497Z,27.17
2019-05-22T04:51:50.736Z,28.90
2019-05-22T04:53:55.238Z,28.27
2019-05-22T04:55:59.139Z,28.40
2019-05-22T04:58:11.307Z,27.27
2019-05-22T05:00:16.927Z,28.17
2019-05-22T05:02:20.771Z,29.33
2019-05-22T05:04:24.898Z,27.93
2019-05-22T05:06:31.158Z,26.77
2019-05-22T05:08:35.243Z,28.17
2019-05-22T05:10:39.883Z,27.50
2019-05-22T05:12:43.502Z,27.00
2019-05-22T05:14:47.144Z,25.70
2019-05-22T05:16:51.411Z,26.33
2019-05-22T05:18:55.624Z,25.13
2019-05-22T05:20:59.534Z,25.93
2019-05-22T05:23:03.440Z,23.47
2019-05-22T05:25:07.436Z,23.33
2019-05-22T05:27:11.890Z,23.17
2019-05-22T05:29:29.811Z,22.80
2019-05-22T05:31:33.796Z,23.07
2019-05-22T05:33:59.932Z,22.80
2019-05-22T05:36:03.843Z,24.33
2019-05-22T05:38:09.479Z,23.00
2019-05-22T05:40:41.421Z,23.57
2019-05-22T05:42:45.362Z,22.43
2019-05-22T05:44:48.896Z,22.80
2019-05-22T05:46:52.952Z,23.20
2019-05-22T05:48:57.062Z,22.20
2019-05-22T05:51:10.399Z,21.87
2019-05-22T05:53:19.233Z,21.50
2019-05-22T05:55:25.163Z,20.70
2019-05-22T05:57:41.025Z,20.50
2019-05-22T05:59:45.590Z,20.57
2019-05-22T06:01:51.421Z,21.90
2019-05-22T06:03:57.494Z,19.27
2019-05-22T06:06:06.998Z,18.43
2019-05-22T06:08:10.526Z,19.70
2019-05-22T06:10:28.056Z,19.67
2019-05-22T06:12:31.642Z,20.83
2019-05-22T06:14:36.756Z,19.53
2019-05-22T06:16:51.460Z,19.13
2019-05-22T06:18:57.149Z,20.13
2019-05-22T06:21:04.460Z,20.33
2019-05-22T06:23:23.828Z,19.30
2019-05-22T06:25:29.418Z,18.87
2019-05-22T06:27:35.514Z,19.10
2019-05-22T06:29:57.893Z,19.27
2019-05-22T06:32:08.225Z,19.20
2019-05-22T06:34:12.511Z,18.60
2019-05-22T06:36:18.170Z,17.90
2019-05-22T06:38:49.579Z,19.33
2019-05-22T06:40:53.540Z,18.77
2019-05-22T06:43:23.948Z,17.93
2019-05-22T06:45:28.277Z,18.67
2019-05-22T06:47:32.191Z,17.67
2019-05-22T06:49:38.305Z,17.30
2019-05-22T06:51:42.239Z,16.73
2019-05-22T06:53:46.151Z,16.23
2019-05-22T06:55:50.791Z,16.73
2019-05-22T06:57:54.693Z,15.37
2019-05-22T07:00:13.426Z,17.00
2019-05-22T07:02:06.069Z,16.00
2019-05-22T07:04:09.890Z,16.03
2019-05-22T07:06:13.549Z,15.73
2019-05-22T07:08:17.585Z,16.87
2019-05-22T07:10:21.753Z,16.10
2019-05-22T07:12:26.897Z,15.53
2019-05-22T07:14:31.963Z,16.10
2019-05-22T07:16:37.425Z,30.43
2019-05-22T07:18:43.411Z,15.40
2019-05-22T07:20:47.531Z,15.20
2019-05-22T07:22:51.394Z,15.37
2019-05-22T07:24:55.691Z,15.00
2019-05-22T07:27:03.041Z,24.17
2019-05-22T07:29:08.699Z,14.63
2019-05-22T07:31:12.529Z,14.87
2019-05-22T07:33:18.189Z,15.50
2019-05-22T07:35:22.595Z,13.10
2019-05-22T07:37:27.307Z,14.07
2019-05-22T07:39:31.125Z,15.10
2019-05-22T07:41:35.867Z,12.30
2019-05-22T07:43:41.509Z,14.00
2019-05-22T07:45:45.906Z,14.07
2019-05-22T07:47:50.254Z,14.00
2019-05-22T07:49:53.766Z,12.77
2019-05-22T07:52:01.610Z,13.77
2019-05-22T07:54:03.037Z,13.20
2019-05-22T07:56:10.170Z,13.33
2019-05-22T07:58:16.527Z,12.23
2019-05-22T08:00:20.417Z,12.50
2019-05-22T08:02:27.801Z,13.17
2019-05-22T08:04:32.340Z,12.63
2019-05-22T08:06:36.028Z,13.43
2019-05-22T08:08:45.539Z,12.90
2019-05-22T08:10:49.991Z,11.77
2019-05-22T08:12:53.863Z,12.63
2019-05-22T08:14:57.688Z,12.53
2019-05-22T08:17:03.418Z,12.37
2019-05-22T08:19:07.327Z,11.07
2019-05-22T08:21:11.667Z,11.90
2019-05-22T08:23:16.055Z,11.47
2019-05-22T08:25:20.173Z,12.77
2019-05-22T08:27:24.839Z,11.53
2019-05-22T08:29:29.123Z,11.80
2019-05-22T08:31:33.865Z,11.80
2019-05-22T08:33:39.120Z,11.87
2019-05-22T08:35:44.632Z,10.73
2019-05-22T08:37:50.354Z,11.50
2019-05-22T08:39:53.974Z,10.27
2019-05-22T08:41:58.174Z,12.20
2019-05-22T08:44:16.018Z,11.57
2019-05-22T08:46:07.719Z,11.17
2019-05-22T08:48:13.363Z,11.17
2019-05-22T08:50:21.311Z,10.30
2019-05-22T08:52:26.005Z,10.53
2019-05-22T08:54:33.170Z,10.50
2019-05-22T08:56:42.878Z,11.20
2019-05-22T08:58:48.792Z,9.73
2019-05-22T09:00:52.781Z,9.70
2019-05-22T09:02:56.715Z,9.90
2019-05-22T09:05:00.694Z,10.43
2019-05-22T09:07:04.713Z,9.83
2019-05-22T09:09:08.727Z,11.10
2019-05-22T09:11:12.317Z,9.77
2019-05-22T09:13:16.310Z,9.57
2019-05-22T09:15:20.638Z,9.00
2019-05-22T09:17:24.735Z,9.60
2019-05-22T09:19:28.401Z,10.23
2019-05-22T09:21:32.539Z,8.50
2019-05-22T09:23:37.172Z,8.83
2019-05-22T09:25:41.293Z,9.03
2019-05-22T09:27:44.903Z,9.10
2019-05-22T09:29:48.789Z,9.07
2019-05-22T09:31:53.118Z,8.37
2019-05-22T09:33:57.425Z,8.43
2019-05-22T09:36:01.327Z,8.90
2019-05-22T09:38:05.243Z,8.77
2019-05-22T09:40:09.147Z,8.37
2019-05-22T09:42:12.749Z,8.70
2019-05-22T09:44:17.553Z,8.77
2019-05-22T09:46:21.660Z,8.17
2019-05-22T09:48:25.567Z,8.97
2019-05-22T09:50:30.501Z,8.57
2019-05-22T09:52:34.923Z,8.20
2019-05-22T09:54:39.456Z,8.37
2019-05-22T09:56:43.012Z,7.67
2019-05-22T09:58:46.657Z,8.13
2019-05-22T10:00:50.541Z,7.47
2019-05-22T10:02:54.469Z,8.57
2019-05-22T10:04:58.561Z,8.37
2019-05-22T10:07:02.472Z,7.90
2019-05-22T10:09:08.709Z,8.47
2019-05-22T10:11:12.593Z,8.87
2019-05-22T10:13:16.591Z,8.30
2019-05-22T10:15:21.036Z,8.73
2019-05-22T10:17:24.955Z,8.33
2019-05-22T10:19:28.555Z,9.10
2019-05-22T10:21:33.300Z,8.57
2019-05-22T10:23:37.387Z,8.67
2019-05-22T10:25:40.982Z,9.23
2019-05-22T10:27:46.229Z,9.13
2019-05-22T10:29:50.143Z,9.00
2019-05-22T10:31:54.033Z,9.00
2019-05-22T10:33:57.847Z,7.60
2019-05-22T10:36:01.804Z,7.73
2019-05-22T10:38:06.017Z,7.10
2019-05-22T10:40:12.015Z,7.80
2019-05-22T10:42:15.923Z,7.63
2019-05-22T10:44:20.006Z,8.57
2019-05-22T10:46:23.579Z,7.17
2019-05-22T10:48:28.134Z,8.83
2019-05-22T10:50:31.952Z,8.87
2019-05-22T10:52:35.843Z,7.57
2019-05-22T10:54:39.438Z,7.20
2019-05-22T10:56:43.369Z,6.93
2019-05-22T10:58:47.186Z,8.87
2019-05-22T11:00:51.707Z,7.13
2019-05-22T11:02:56.006Z,7.80
2019-05-22T11:04:59.908Z,9.47
2019-05-22T11:07:04.868Z,9.87
2019-05-22T11:09:10.187Z,10.87
2019-05-22T11:11:15.319Z,12.43
2019-05-22T11:13:19.517Z,10.67
2019-05-22T11:15:24.254Z,11.10
2019-05-22T11:17:27.855Z,9.10
2019-05-22T11:19:32.667Z,8.73
2019-05-22T11:21:36.361Z,10.40
2019-05-22T11:23:51.037Z,10.00
2019-05-22T11:25:47.473Z,9.50
2019-05-22T11:27:53.100Z,9.70
2019-05-22T11:29:57.336Z,10.23
2019-05-22T11:32:01.316Z,13.03
2019-05-22T11:34:05.607Z,12.77
2019-05-22T11:36:10.052Z,11.10
2019-05-22T11:38:13.909Z,9.43
2019-05-22T11:40:19.398Z,8.97
2019-05-22T11:42:23.549Z,10.30
2019-05-22T11:44:28.358Z,9.17
2019-05-22T11:46:31.889Z,9.63
2019-05-22T11:48:35.781Z,7.40
2019-05-22T11:50:39.964Z,7.70
2019-05-22T11:52:43.851Z,7.80
2019-05-22T11:54:47.677Z,7.07
2019-05-22T11:56:51.566Z,8.53
2019-05-22T11:58:55.111Z,7.00
2019-05-22T12:00:59.297Z,6.87
2019-05-22T12:03:04.382Z,6.90
2019-05-22T12:05:10.887Z,7.60
2019-05-22T12:07:14.782Z,6.47
2019-05-22T12:09:19.210Z,5.97
2019-05-22T12:11:24.446Z,6.50
2019-05-22T12:13:30.487Z,5.73
2019-05-22T12:15:34.949Z,5.67
2019-05-22T12:17:39.471Z,5.93
2019-05-22T12:19:43.678Z,6.70
2019-05-22T12:21:47.484Z,7.37
2019-05-22T12:23:51.350Z,7.63
2019-05-22T12:25:55.346Z,6.47
2019-05-22T12:27:59.259Z,7.77
2019-05-22T12:30:05.230Z,6.63
2019-05-22T12:32:09.232Z,6.67
2019-05-22T12:34:13.068Z,5.90
2019-05-22T12:36:17.752Z,6.00
2019-05-22T12:38:27.138Z,5.60
2019-05-22T12:40:33.956Z,6.10
2019-05-22T12:42:37.572Z,5.93
2019-05-22T12:44:41.981Z,5.40
2019-05-22T12:46:45.871Z,5.73
2019-05-22T12:48:49.468Z,5.50
2019-05-22T12:50:54.112Z,5.50
2019-05-22T12:52:59.153Z,5.93
2019-05-22T12:55:04.362Z,5.67
2019-05-22T12:57:10.320Z,5.47
2019-05-22T12:59:15.220Z,5.33
2019-05-22T13:01:21.035Z,5.20
2019-05-22T13:03:26.956Z,5.30
2019-05-22T13:05:31.163Z,4.90
2019-05-22T13:07:34.763Z,5.20
2019-05-22T13:09:38.674Z,4.33
2019-05-22T13:11:42.774Z,4.37
2019-05-22T13:13:47.208Z,4.37
2019-05-22T13:15:51.066Z,4.20
2019-05-22T13:17:55.650Z,3.23
2019-05-22T13:20:01.507Z,3.43
2019-05-22T13:22:08.182Z,4.00
2019-05-22T13:24:15.114Z,3.80
2019-05-22T13:26:19.538Z,3.97
2019-05-22T13:28:24.728Z,3.67
2019-05-22T13:30:29.060Z,2.60
2019-05-22T13:32:33.315Z,2.60
2019-05-22T13:34:40.235Z,2.97
2019-05-22T13:36:46.025Z,2.67
2019-05-22T13:38:49.903Z,2.97
2019-05-22T13:40:54.240Z,3.23
2019-05-22T13:42:59.381Z,2.60
2019-05-22T13:45:03.693Z,2.60
2019-05-22T13:47:09.130Z,3.10
2019-05-22T13:49:13.247Z,2.13
2019-05-22T13:51:17.169Z,2.50
2019-05-22T13:53:21.156Z,2.90
2019-05-22T13:55:25.301Z,3.07
2019-05-22T13:57:29.769Z,3.10
2019-05-22T13:59:33.916Z,3.53
2019-05-22T14:01:37.910Z,3.10
2019-05-22T14:03:41.537Z,3.47
2019-05-22T14:05:46.642Z,3.10
2019-05-22T14:07:51.056Z,2.30
2019-05-22T14:09:54.964Z,2.50
2019-05-22T14:11:58.554Z,2.07
2019-05-22T14:14:02.618Z,2.17
2019-05-22T14:16:06.602Z,2.40
2019-05-22T14:18:11.419Z,2.70
2019-05-22T14:20:17.285Z,2.40
2019-05-22T14:22:21.285Z,2.60
2019-05-22T14:24:25.086Z,2.97
2019-05-22T14:26:30.067Z,3.10
2019-05-22T14:28:35.106Z,2.70
2019-05-22T14:30:39.445Z,2.90
2019-05-22T14:32:43.494Z,2.60
2019-05-22T14:34:47.345Z,2.87
2019-05-22T14:36:51.774Z,3.20
2019-05-22T14:38:57.143Z,3.20
2019-05-22T14:41:02.770Z,3.07
2019-05-22T14:43:06.434Z,2.40
2019-05-22T14:45:10.415Z,2.47
2019-05-22T14:47:16.467Z,2.30
2019-05-22T14:49:21.020Z,2.10
2019-05-22T14:51:26.023Z,2.00
2019-05-22T14:53:30.957Z,2.27
2019-05-22T14:55:35.114Z,2.50
2019-05-22T14:57:39.259Z,2.00
2019-05-22T14:59:42.756Z,2.13
2019-05-22T15:01:47.037Z,2.80
2019-05-22T15:03:51.347Z,2.50
2019-05-22T15:05:55.045Z,2.13
2019-05-22T15:07:58.645Z,2.37
2019-05-22T15:10:02.984Z,2.20
2019-05-22T15:12:06.537Z,2.50
2019-05-22T15:14:10.113Z,2.10
2019-05-22T15:16:14.681Z,2.07
2019-05-22T15:18:18.266Z,2.23
2019-05-22T15:20:26.685Z,2.27
2019-05-22T15:22:31.476Z,2.00
2019-05-22T15:24:35.746Z,2.20
2019-05-22T15:26:40.373Z,2.50
2019-05-22T15:28:44.787Z,2.80
2019-05-22T15:30:48.326Z,2.87
2019-05-22T15:32:53.196Z,3.27
2019-05-22T15:34:57.053Z,3.50
2019-05-22T15:37:01.023Z,2.70
2019-05-22T15:39:06.624Z,3.43
2019-05-22T15:41:11.278Z,3.30
2019-05-22T15:43:16.513Z,3.07
2019-05-22T15:45:22.976Z,3.47
2019-05-22T15:47:26.785Z,3.67
2019-05-22T15:49:33.290Z,4.17
2019-05-22T15:51:39.210Z,4.20
2019-05-22T15:53:46.179Z,4.27
2019-05-22T15:55:50.741Z,4.00
2019-05-22T15:57:57.880Z,4.07
2019-05-22T16:00:03.423Z,4.07
2019-05-22T16:02:11.156Z,4.57
2019-05-22T16:04:16.986Z,5.40
2019-05-22T16:06:23.641Z,4.47
2019-05-22T16:08:30.307Z,5.20
2019-05-22T16:10:35.371Z,5.00
2019-05-22T16:12:39.246Z,4.27
2019-05-22T16:14:43.945Z,4.30
2019-05-22T16:16:49.397Z,4.00
2019-05-22T16:18:56.371Z,4.33
2019-05-22T16:21:05.858Z,4.10
2019-05-22T16:23:11.164Z,4.67
2019-05-22T16:25:15.589Z,4.87
2019-05-22T16:27:20.319Z,3.63
2019-05-22T16:29:25.353Z,3.30
2019-05-22T16:31:32.305Z,3.20
2019-05-22T16:33:38.116Z,2.70
2019-05-22T16:35:42.425Z,2.83
2019-05-22T16:37:47.717Z,3.03
2019-05-22T16:39:51.528Z,3.43
2019-05-22T16:41:55.311Z,3.30
2019-05-22T16:43:59.580Z,3.20
2019-05-22T16:46:03.947Z,3.03
2019-05-22T16:48:09.217Z,4.10
2019-05-22T16:50:13.597Z,3.97
2019-05-22T16:52:19.443Z,4.10
2019-05-22T16:54:24.484Z,4.00
2019-05-22T16:56:29.305Z,4.70
2019-05-22T16:58:33.230Z,5.37
2019-05-22T17:00:37.664Z,4.97
2019-05-22T17:02:42.939Z,5.87
2019-05-22T17:04:47.612Z,5.67
2019-05-22T17:06:51.920Z,5.40
2019-05-22T17:08:58.134Z,5.63
2019-05-22T17:11:04.023Z,5.20
2019-05-22T17:13:12.134Z,5.30
2019-05-22T17:15:18.501Z,4.87
2019-05-22T17:17:22.704Z,4.57
2019-05-22T17:19:27.928Z,4.90
2019-05-22T17:21:32.643Z,5.50
2019-05-22T17:23:36.893Z,5.17
2019-05-22T17:25:41.169Z,4.70
2019-05-22T17:27:46.124Z,5.67
2019-05-22T17:29:52.275Z,5.10
2019-05-22T17:31:56.487Z,5.40
2019-05-22T17:34:00.601Z,6.10
2019-05-22T17:36:05.863Z,5.37
2019-05-22T17:38:10.772Z,6.03
2019-05-22T17:40:17.905Z,6.20
2019-05-22T17:42:25.091Z,5.47
2019-05-22T17:44:30.105Z,5.93
2019-05-22T17:46:34.069Z,5.80
2019-05-22T17:48:39.517Z,5.33
2019-05-22T17:50:45.214Z,5.80
2019-05-22T17:52:49.264Z,6.20
2019-05-22T17:54:53.854Z,5.17
2019-05-22T17:56:58.093Z,5.63
2019-05-22T17:59:01.977Z,6.00
2019-05-22T18:01:07.449Z,6.30
2019-05-22T18:03:11.992Z,6.10
2019-05-22T18:05:17.212Z,6.43
2019-05-22T18:07:22.133Z,5.57
2019-05-22T18:09:26.084Z,5.93
2019-05-22T18:11:29.691Z,6.80
2019-05-22T18:13:38.262Z,7.23
2019-05-22T18:15:42.883Z,6.97
2019-05-22T18:17:47.100Z,6.73
2019-05-22T18:19:51.201Z,6.20
2019-05-22T18:21:54.731Z,6.70
2019-05-22T18:23:59.204Z,7.30
2019-05-22T18:26:03.225Z,6.73
2019-05-22T18:28:07.352Z,6.83
2019-05-22T18:30:11.893Z,7.20
2019-05-22T18:32:16.182Z,6.57
2019-05-22T18:34:19.771Z,6.70
2019-05-22T18:36:23.321Z,6.33
2019-05-22T18:38:27.260Z,7.03
2019-05-22T18:40:31.168Z,7.30
2019-05-22T18:42:34.695Z,7.00
2019-05-22T18:44:38.475Z,6.57
2019-05-22T18:46:42.166Z,7.00
2019-05-22T18:48:48.202Z,6.37
2019-05-22T18:50:51.405Z,7.10
2019-05-22T18:52:55.320Z,6.57
2019-05-22T18:54:59.233Z,6.90
2019-05-22T18:57:02.771Z,6.50
2019-05-22T18:59:06.634Z,7.53
2019-05-22T19:01:10.437Z,7.10
2019-05-22T19:03:14.446Z,6.50
2019-05-22T19:05:21.638Z,6.97
2019-05-22T19:07:25.536Z,7.63
2019-05-22T19:09:29.439Z,7.80
2019-05-22T19:11:33.346Z,7.23
2019-05-22T19:13:37.350Z,8.10
2019-05-22T19:15:41.559Z,7.60
2019-05-22T19:17:45.463Z,8.27
2019-05-22T19:19:49.832Z,7.93
2019-05-22T19:21:53.466Z,7.73
2019-05-22T19:23:57.595Z,9.00
2019-05-22T19:26:05.319Z,8.40
2019-05-22T19:28:06.844Z,8.17
2019-05-22T19:30:12.079Z,9.03
2019-05-22T19:32:15.766Z,9.77
2019-05-22T19:34:19.887Z,9.10
2019-05-22T19:36:24.395Z,9.47
2019-05-22T19:38:28.303Z,9.37
2019-05-22T19:40:32.222Z,10.17
2019-05-22T19:42:36.396Z,10.73
2019-05-22T19:44:40.344Z,10.37
2019-05-22T19:46:44.347Z,10.20
2019-05-22T19:48:48.453Z,10.13
2019-05-22T19:50:52.352Z,10.03
2019-05-22T19:52:56.789Z,12.40
2019-05-22T19:55:00.679Z,10.70
2019-05-22T19:57:06.007Z,9.23
2019-05-22T19:59:10.421Z,10.80
2019-05-22T20:01:14.315Z,11.67
2019-05-22T20:03:18.243Z,12.20
2019-05-22T20:05:23.412Z,12.87
2019-05-22T20:07:27.799Z,12.90
2019-05-22T20:09:31.700Z,12.23
2019-05-22T20:11:35.330Z,13.60
2019-05-22T20:13:40.221Z,12.07
2019-05-22T20:15:44.143Z,13.10
2019-05-22T20:17:48.136Z,12.50
2019-05-22T20:19:52.403Z,12.57
2019-05-22T20:22:00.415Z,13.67
2019-05-22T20:24:04.389Z,12.57
2019-05-22T20:26:08.529Z,13.07
2019-05-22T20:28:12.681Z,13.50
2019-05-22T20:30:18.848Z,12.47
2019-05-22T20:32:22.795Z,13.23
2019-05-22T20:34:26.817Z,13.17
2019-05-22T20:36:31.385Z,12.10
2019-05-22T20:38:36.145Z,13.77
2019-05-22T20:40:40.636Z,13.57
2019-05-22T20:42:44.623Z,12.07
2019-05-22T20:44:48.835Z,14.03
2019-05-22T20:46:53.579Z,13.27
2019-05-22T20:48:57.472Z,14.43
2019-05-22T20:51:01.393Z,13.70
2019-05-22T20:53:07.736Z,14.13
2019-05-22T20:55:13.186Z,13.87
2019-05-22T20:57:20.043Z,13.50
2019-05-22T20:59:24.685Z,12.83
2019-05-22T21:01:28.230Z,12.63
2019-05-22T21:03:32.577Z,12.07
2019-05-22T21:05:37.592Z,11.67
2019-05-22T21:07:47.745Z,11.93
2019-05-22T21:09:52.707Z,11.43
2019-05-22T21:11:56.819Z,10.80
2019-05-22T21:14:00.727Z,12.03
2019-05-22T21:16:05.457Z,12.00
2019-05-22T21:18:09.426Z,12.07
2019-05-22T21:20:15.927Z,11.33
2019-05-22T21:22:21.318Z,10.97
2019-05-22T21:24:25.107Z,10.90
2019-05-22T21:26:29.589Z,10.33
2019-05-22T21:28:33.491Z,9.87
2019-05-22T21:30:38.650Z,10.77
2019-05-22T21:32:44.478Z,9.83
2019-05-22T21:34:48.578Z,10.90
2019-05-22T21:36:52.480Z,10.40
2019-05-22T21:38:56.690Z,9.90
2019-05-22T21:41:01.311Z,9.37
2019-05-22T21:43:05.737Z,10.80
2019-05-22T21:45:11.377Z,10.70
2019-05-22T21:47:17.034Z,11.43
2019-05-22T21:49:20.814Z,10.67
2019-05-22T21:51:24.836Z,10.67
2019-05-22T21:53:29.574Z,11.70
2019-05-22T21:55:33.870Z,14.23
2019-05-22T21:57:39.641Z,14.10
2019-05-22T21:59:43.586Z,14.17
2019-05-22T22:01:51.754Z,14.70
2019-05-22T22:04:15.825Z,13.73
2019-05-22T22:06:20.577Z,14.00
2019-05-22T22:08:25.366Z,14.37
2019-05-22T22:10:30.821Z,14.73
2019-05-22T22:12:35.152Z,14.87
2019-05-22T22:14:40.364Z,15.33
2019-05-22T22:16:45.408Z,15.83
2019-05-22T22:18:49.614Z,16.23
2019-05-22T22:20:53.854Z,15.05
2019-05-22T22:22:58.032Z,15.27
2019-05-22T22:25:02.456Z,14.50
2019-05-22T22:27:08.003Z,13.08
2019-05-22T22:29:11.630Z,14.10
2019-05-22T22:31:17.152Z,14.10
2019-05-22T22:33:25.306Z,15.05
2019-05-22T22:35:29.350Z,14.70
2019-05-22T22:37:33.776Z,13.77
2019-05-22T22:39:41.468Z,14.83
2019-05-22T22:41:47.573Z,13.75
2019-05-22T22:43:52.972Z,14.17
2019-05-22T22:46:19.696Z,14.30
2019-05-22T22:48:25.351Z,14.68
2019-05-22T22:50:29.452Z,14.95
2019-05-22T22:52:33.768Z,15.48
2019-05-22T22:54:38.184Z,15.10
2019-05-22T22:56:44.041Z,14.93
2019-05-22T22:58:48.876Z,15.57
2019-05-22T23:00:56.003Z,15.03
2019-05-22T23:03:00.481Z,14.43
2019-05-22T23:05:05.711Z,14.60
2019-05-22T23:07:10.554Z,13.48
2019-05-22T23:09:15.349Z,15.30
2019-05-22T23:11:19.590Z,13.83
2019-05-22T23:13:23.986Z,12.87
2019-05-22T23:15:28.274Z,15.00
2019-05-22T23:17:32.114Z,14.35
2019-05-22T23:19:36.141Z,13.73
2019-05-22T23:21:40.934Z,12.98
2019-05-22T23:23:44.308Z,13.32
2019-05-22T23:25:48.641Z,13.53
2019-05-22T23:27:52.856Z,12.50
2019-05-22T23:29:57.392Z,12.85
2019-05-22T23:32:03.848Z,12.68
2019-05-22T23:34:08.071Z,11.80
2019-05-22T23:36:13.412Z,12.35
2019-05-22T23:38:17.250Z,12.60
2019-05-22T23:40:27.979Z,12.68
2019-05-22T23:42:35.080Z,12.47
2019-05-22T23:44:40.087Z,12.68
2019-05-22T23:46:44.942Z,12.90
2019-05-22T23:48:49.115Z,12.75
2019-05-22T23:50:53.194Z,12.58
2019-05-22T23:52:58.646Z,13.05
2019-05-22T23:55:04.100Z,12.85
2019-05-22T23:57:10.486Z,12.82
2019-05-22T23:59:16.634Z,12.93
